sensor_id;sensor_type;location;lat;lon;timestamp;P1;durP1;ratioP1;P2;durP2;ratioP2
74042;SDS011;62384;53.600;10.040;2022-12-24T00:00:57;19.38;;;6.75;;
74042;SDS011;62384;53.600;10.040;2022-12-24T00:03:22;24.48;;;7.00;;
74042;SDS011;62384;53.600;10.040;2022-12-24T00:05:48;20.27;;;6.57;;
74042;SDS011;62384;53.600;10.040;2022-12-24T00:08:13;15.82;;;6.15;;
74042;SDS011;62384;53.600;10.040;2022-12-24T00:10:38;18.60;;;5.57;;
74042;SDS011;62384;53.600;10.040;2022-12-24T00:13:04;15.15;;;5.80;;
74042;SDS011;62384;53.600;10.040;2022-12-24T00:15:29;21.95;;;6.75;;
74042;SDS011;62384;53.600;10.040;2022-12-24T00:17:54;18.17;;;6.47;;
74042;SDS011;62384;53.600;10.040;2022-12-24T00:20:20;17.95;;;5.68;;
74042;SDS011;62384;53.600;10.040;2022-12-24T00:22:45;13.57;;;5.03;;
74042;SDS011;62384;53.600;10.040;2022-12-24T00:25:10;24.20;;;6.35;;
74042;SDS011;62384;53.600;10.040;2022-12-24T00:27:36;18.30;;;6.13;;
74042;SDS011;62384;53.600;10.040;2022-12-24T00:30:01;18.25;;;6.20;;
74042;SDS011;62384;53.600;10.040;2022-12-24T00:32:26;18.15;;;5.90;;
74042;SDS011;62384;53.600;10.040;2022-12-24T00:34:52;17.33;;;5.82;;
74042;SDS011;62384;53.600;10.040;2022-12-24T00:37:17;19.13;;;6.30;;
74042;SDS011;62384;53.600;10.040;2022-12-24T00:39:42;16.40;;;5.78;;
74042;SDS011;62384;53.600;10.040;2022-12-24T00:42:08;19.38;;;6.28;;
74042;SDS011;62384;53.600;10.040;2022-12-24T00:44:33;20.20;;;6.00;;
74042;SDS011;62384;53.600;10.040;2022-12-24T00:46:58;20.85;;;6.50;;
74042;SDS011;62384;53.600;10.040;2022-12-24T00:49:23;16.67;;;5.57;;
74042;SDS011;62384;53.600;10.040;2022-12-24T00:51:49;20.17;;;6.47;;
74042;SDS011;62384;53.600;10.040;2022-12-24T00:54:14;19.33;;;6.00;;
74042;SDS011;62384;53.600;10.040;2022-12-24T00:56:39;20.95;;;5.72;;
74042;SDS011;62384;53.600;10.040;2022-12-24T00:59:05;22.90;;;6.90;;
74042;SDS011;62384;53.600;10.040;2022-12-24T01:01:30;18.30;;;6.60;;
74042;SDS011;62384;53.600;10.040;2022-12-24T01:03:55;16.73;;;5.90;;
74042;SDS011;62384;53.600;10.040;2022-12-24T01:06:41;26.17;;;6.63;;
74042;SDS011;62384;53.600;10.040;2022-12-24T01:09:06;28.38;;;6.63;;
74042;SDS011;62384;53.600;10.040;2022-12-24T01:11:31;21.52;;;6.35;;
74042;SDS011;62384;53.600;10.040;2022-12-24T01:14:00;17.27;;;6.25;;
74042;SDS011;62384;53.600;10.040;2022-12-24T01:16:25;18.15;;;5.50;;
74042;SDS011;62384;53.600;10.040;2022-12-24T01:18:51;23.27;;;6.50;;
74042;SDS011;62384;53.600;10.040;2022-12-24T01:21:17;20.77;;;6.75;;
74042;SDS011;62384;53.600;10.040;2022-12-24T01:23:44;19.38;;;6.10;;
74042;SDS011;62384;53.600;10.040;2022-12-24T01:26:10;22.20;;;5.78;;
74042;SDS011;62384;53.600;10.040;2022-12-24T01:28:39;21.23;;;6.82;;
74042;SDS011;62384;53.600;10.040;2022-12-24T01:31:15;25.17;;;6.85;;
74042;SDS011;62384;53.600;10.040;2022-12-24T01:33:42;27.77;;;7.15;;
74042;SDS011;62384;53.600;10.040;2022-12-24T01:36:08;18.63;;;5.70;;
74042;SDS011;62384;53.600;10.040;2022-12-24T01:38:33;22.10;;;5.75;;
74042;SDS011;62384;53.600;10.040;2022-12-24T01:40:59;22.23;;;6.53;;
74042;SDS011;62384;53.600;10.040;2022-12-24T01:43:43;16.98;;;6.05;;
74042;SDS011;62384;53.600;10.040;2022-12-24T01:48:58;19.42;;;6.93;;
74042;SDS011;62384;53.600;10.040;2022-12-24T01:54:03;24.08;;;6.47;;
74042;SDS011;62384;53.600;10.040;2022-12-24T01:56:32;21.33;;;5.85;;
74042;SDS011;62384;53.600;10.040;2022-12-24T01:59:02;16.05;;;5.50;;
74042;SDS011;62384;53.600;10.040;2022-12-24T02:01:32;18.85;;;5.75;;
74042;SDS011;62384;53.600;10.040;2022-12-24T02:03:58;16.27;;;5.30;;
74042;SDS011;62384;53.600;10.040;2022-12-24T02:06:24;18.85;;;5.38;;
74042;SDS011;62384;53.600;10.040;2022-12-24T02:08:50;22.17;;;5.97;;
74042;SDS011;62384;53.600;10.040;2022-12-24T02:11:16;15.50;;;5.65;;
74042;SDS011;62384;53.600;10.040;2022-12-24T02:13:44;24.40;;;5.90;;
74042;SDS011;62384;53.600;10.040;2022-12-24T02:28:19;20.15;;;6.03;;
74042;SDS011;62384;53.600;10.040;2022-12-24T02:30:19;14.52;;;4.57;;
74042;SDS011;62384;53.600;10.040;2022-12-24T02:32:57;17.33;;;5.45;;
74042;SDS011;62384;53.600;10.040;2022-12-24T02:35:49;16.95;;;5.13;;
74042;SDS011;62384;53.600;10.040;2022-12-24T02:38:25;19.80;;;5.97;;
74042;SDS011;62384;53.600;10.040;2022-12-24T02:40:56;17.88;;;5.00;;
74042;SDS011;62384;53.600;10.040;2022-12-24T02:43:28;16.70;;;5.43;;
74042;SDS011;62384;53.600;10.040;2022-12-24T02:46:01;18.83;;;5.40;;
74042;SDS011;62384;53.600;10.040;2022-12-24T02:48:31;19.63;;;4.60;;
74042;SDS011;62384;53.600;10.040;2022-12-24T02:51:01;23.05;;;6.90;;
74042;SDS011;62384;53.600;10.040;2022-12-24T02:53:30;19.58;;;5.32;;
74042;SDS011;62384;53.600;10.040;2022-12-24T02:58:36;15.10;;;4.50;;
74042;SDS011;62384;53.600;10.040;2022-12-24T03:07:06;19.55;;;5.75;;
74042;SDS011;62384;53.600;10.040;2022-12-24T03:12:37;18.23;;;5.53;;
74042;SDS011;62384;53.600;10.040;2022-12-24T03:15:06;13.38;;;4.45;;
74042;SDS011;62384;53.600;10.040;2022-12-24T03:17:36;14.68;;;5.30;;
74042;SDS011;62384;53.600;10.040;2022-12-24T03:20:04;17.73;;;6.00;;
74042;SDS011;62384;53.600;10.040;2022-12-24T03:22:31;17.23;;;4.90;;
74042;SDS011;62384;53.600;10.040;2022-12-24T03:24:58;15.63;;;5.25;;
74042;SDS011;62384;53.600;10.040;2022-12-24T03:27:27;21.13;;;5.03;;
74042;SDS011;62384;53.600;10.040;2022-12-24T03:29:54;15.35;;;5.20;;
74042;SDS011;62384;53.600;10.040;2022-12-24T03:32:26;19.52;;;5.05;;
74042;SDS011;62384;53.600;10.040;2022-12-24T03:34:53;14.13;;;5.13;;
74042;SDS011;62384;53.600;10.040;2022-12-24T03:37:19;13.07;;;4.38;;
74042;SDS011;62384;53.600;10.040;2022-12-24T03:39:44;11.07;;;4.25;;
74042;SDS011;62384;53.600;10.040;2022-12-24T03:42:09;15.95;;;5.50;;
74042;SDS011;62384;53.600;10.040;2022-12-24T03:44:35;15.65;;;4.80;;
74042;SDS011;62384;53.600;10.040;2022-12-24T03:47:00;14.73;;;5.28;;
74042;SDS011;62384;53.600;10.040;2022-12-24T03:49:25;13.07;;;4.85;;
74042;SDS011;62384;53.600;10.040;2022-12-24T03:51:52;15.75;;;5.15;;
74042;SDS011;62384;53.600;10.040;2022-12-24T03:54:17;14.35;;;4.85;;
74042;SDS011;62384;53.600;10.040;2022-12-24T03:56:43;15.07;;;4.30;;
74042;SDS011;62384;53.600;10.040;2022-12-24T03:59:08;16.70;;;5.07;;
74042;SDS011;62384;53.600;10.040;2022-12-24T04:01:33;12.80;;;4.47;;
74042;SDS011;62384;53.600;10.040;2022-12-24T04:03:59;15.10;;;4.90;;
74042;SDS011;62384;53.600;10.040;2022-12-24T04:06:24;18.15;;;4.78;;
74042;SDS011;62384;53.600;10.040;2022-12-24T04:08:49;8.60;;;3.40;;
74042;SDS011;62384;53.600;10.040;2022-12-24T04:11:15;14.93;;;5.35;;
74042;SDS011;62384;53.600;10.040;2022-12-24T04:13:40;10.05;;;3.78;;
74042;SDS011;62384;53.600;10.040;2022-12-24T04:16:07;12.05;;;4.50;;
74042;SDS011;62384;53.600;10.040;2022-12-24T04:18:35;11.65;;;4.18;;
74042;SDS011;62384;53.600;10.040;2022-12-24T04:21:01;12.65;;;4.65;;
74042;SDS011;62384;53.600;10.040;2022-12-24T04:23:29;9.50;;;3.22;;
74042;SDS011;62384;53.600;10.040;2022-12-24T04:25:57;11.10;;;4.53;;
74042;SDS011;62384;53.600;10.040;2022-12-24T04:28:23;9.20;;;3.75;;
74042;SDS011;62384;53.600;10.040;2022-12-24T04:30:48;13.90;;;4.60;;
74042;SDS011;62384;53.600;10.040;2022-12-24T04:33:14;12.25;;;3.65;;
74042;SDS011;62384;53.600;10.040;2022-12-24T04:35:39;11.73;;;4.82;;
74042;SDS011;62384;53.600;10.040;2022-12-24T04:38:05;15.48;;;4.45;;
74042;SDS011;62384;53.600;10.040;2022-12-24T04:40:31;15.02;;;4.45;;
74042;SDS011;62384;53.600;10.040;2022-12-24T04:42:56;8.15;;;4.20;;
74042;SDS011;62384;53.600;10.040;2022-12-24T04:45:21;14.35;;;4.20;;
74042;SDS011;62384;53.600;10.040;2022-12-24T04:47:47;9.65;;;3.65;;
74042;SDS011;62384;53.600;10.040;2022-12-24T04:50:12;9.73;;;4.45;;
74042;SDS011;62384;53.600;10.040;2022-12-24T04:52:38;15.15;;;4.07;;
74042;SDS011;62384;53.600;10.040;2022-12-24T04:55:03;8.75;;;3.45;;
74042;SDS011;62384;53.600;10.040;2022-12-24T04:57:32;10.77;;;3.60;;
74042;SDS011;62384;53.600;10.040;2022-12-24T04:59:58;13.30;;;4.80;;
74042;SDS011;62384;53.600;10.040;2022-12-24T05:02:23;8.75;;;3.35;;
74042;SDS011;62384;53.600;10.040;2022-12-24T05:04:49;16.90;;;4.32;;
74042;SDS011;62384;53.600;10.040;2022-12-24T05:07:14;10.35;;;4.07;;
74042;SDS011;62384;53.600;10.040;2022-12-24T05:09:39;14.88;;;5.35;;
74042;SDS011;62384;53.600;10.040;2022-12-24T05:12:05;10.68;;;4.38;;
74042;SDS011;62384;53.600;10.040;2022-12-24T05:14:30;13.68;;;4.53;;
74042;SDS011;62384;53.600;10.040;2022-12-24T05:16:55;15.27;;;4.13;;
74042;SDS011;62384;53.600;10.040;2022-12-24T05:19:21;15.05;;;4.72;;
74042;SDS011;62384;53.600;10.040;2022-12-24T05:21:46;14.30;;;4.38;;
74042;SDS011;62384;53.600;10.040;2022-12-24T05:24:31;12.20;;;3.60;;
74042;SDS011;62384;53.600;10.040;2022-12-24T05:27:15;10.82;;;4.05;;
74042;SDS011;62384;53.600;10.040;2022-12-24T05:29:41;9.60;;;3.65;;
74042;SDS011;62384;53.600;10.040;2022-12-24T05:32:06;15.13;;;4.35;;
74042;SDS011;62384;53.600;10.040;2022-12-24T05:34:31;14.13;;;4.20;;
74042;SDS011;62384;53.600;10.040;2022-12-24T05:36:56;10.57;;;4.05;;
74042;SDS011;62384;53.600;10.040;2022-12-24T05:39:22;12.70;;;4.78;;
74042;SDS011;62384;53.600;10.040;2022-12-24T05:41:47;9.20;;;3.55;;
74042;SDS011;62384;53.600;10.040;2022-12-24T05:44:12;12.32;;;3.22;;
74042;SDS011;62384;53.600;10.040;2022-12-24T05:46:38;7.78;;;3.85;;
74042;SDS011;62384;53.600;10.040;2022-12-24T05:49:04;9.48;;;3.75;;
74042;SDS011;62384;53.600;10.040;2022-12-24T05:51:29;14.13;;;3.63;;
74042;SDS011;62384;53.600;10.040;2022-12-24T05:53:54;14.88;;;5.45;;
74042;SDS011;62384;53.600;10.040;2022-12-24T05:56:21;18.17;;;4.03;;
74042;SDS011;62384;53.600;10.040;2022-12-24T05:58:48;9.93;;;3.80;;
74042;SDS011;62384;53.600;10.040;2022-12-24T06:01:14;10.93;;;3.55;;
74042;SDS011;62384;53.600;10.040;2022-12-24T06:03:40;11.40;;;3.20;;
74042;SDS011;62384;53.600;10.040;2022-12-24T06:06:07;9.73;;;4.07;;
74042;SDS011;62384;53.600;10.040;2022-12-24T06:08:39;12.65;;;4.28;;
74042;SDS011;62384;53.600;10.040;2022-12-24T06:11:06;16.67;;;3.95;;
74042;SDS011;62384;53.600;10.040;2022-12-24T06:13:33;8.77;;;3.38;;
74042;SDS011;62384;53.600;10.040;2022-12-24T06:16:00;10.93;;;3.78;;
74042;SDS011;62384;53.600;10.040;2022-12-24T06:18:30;7.95;;;3.00;;
74042;SDS011;62384;53.600;10.040;2022-12-24T06:20:56;12.82;;;3.83;;
74042;SDS011;62384;53.600;10.040;2022-12-24T06:23:23;9.05;;;2.83;;
74042;SDS011;62384;53.600;10.040;2022-12-24T06:25:48;10.20;;;3.83;;
74042;SDS011;62384;53.600;10.040;2022-12-24T06:28:14;7.75;;;3.40;;
74042;SDS011;62384;53.600;10.040;2022-12-24T06:30:40;12.55;;;4.07;;
74042;SDS011;62384;53.600;10.040;2022-12-24T06:33:05;12.57;;;4.00;;
74042;SDS011;62384;53.600;10.040;2022-12-24T06:35:31;10.93;;;3.28;;
74042;SDS011;62384;53.600;10.040;2022-12-24T06:38:01;11.45;;;3.80;;
74042;SDS011;62384;53.600;10.040;2022-12-24T06:40:26;11.75;;;3.40;;
74042;SDS011;62384;53.600;10.040;2022-12-24T06:42:52;9.23;;;2.88;;
74042;SDS011;62384;53.600;10.040;2022-12-24T06:45:17;7.13;;;2.90;;
74042;SDS011;62384;53.600;10.040;2022-12-24T06:47:42;8.27;;;2.92;;
74042;SDS011;62384;53.600;10.040;2022-12-24T06:50:07;8.10;;;2.42;;
74042;SDS011;62384;53.600;10.040;2022-12-24T06:52:33;10.82;;;3.42;;
74042;SDS011;62384;53.600;10.040;2022-12-24T06:54:58;9.45;;;3.25;;
74042;SDS011;62384;53.600;10.040;2022-12-24T06:57:25;11.20;;;3.20;;
74042;SDS011;62384;53.600;10.040;2022-12-24T06:59:52;7.35;;;2.42;;
74042;SDS011;62384;53.600;10.040;2022-12-24T07:02:17;6.38;;;3.10;;
74042;SDS011;62384;53.600;10.040;2022-12-24T07:04:42;8.52;;;3.10;;
74042;SDS011;62384;53.600;10.040;2022-12-24T07:07:07;6.55;;;2.40;;
74042;SDS011;62384;53.600;10.040;2022-12-24T07:09:33;8.50;;;2.65;;
74042;SDS011;62384;53.600;10.040;2022-12-24T07:11:58;4.50;;;2.15;;
74042;SDS011;62384;53.600;10.040;2022-12-24T07:14:23;6.82;;;2.42;;
74042;SDS011;62384;53.600;10.040;2022-12-24T07:16:49;8.63;;;2.35;;
74042;SDS011;62384;53.600;10.040;2022-12-24T07:19:14;8.35;;;3.38;;
74042;SDS011;62384;53.600;10.040;2022-12-24T07:21:39;7.20;;;2.78;;
74042;SDS011;62384;53.600;10.040;2022-12-24T07:24:05;6.70;;;2.97;;
74042;SDS011;62384;53.600;10.040;2022-12-24T07:26:30;8.05;;;3.25;;
74042;SDS011;62384;53.600;10.040;2022-12-24T07:28:56;7.03;;;2.33;;
74042;SDS011;62384;53.600;10.040;2022-12-24T07:31:21;6.32;;;2.35;;
74042;SDS011;62384;53.600;10.040;2022-12-24T07:33:47;7.00;;;2.47;;
74042;SDS011;62384;53.600;10.040;2022-12-24T07:36:19;10.63;;;3.50;;
74042;SDS011;62384;53.600;10.040;2022-12-24T07:39:01;6.13;;;2.30;;
74042;SDS011;62384;53.600;10.040;2022-12-24T07:41:26;7.93;;;2.70;;
74042;SDS011;62384;53.600;10.040;2022-12-24T07:43:51;9.55;;;2.72;;
74042;SDS011;62384;53.600;10.040;2022-12-24T07:46:17;9.10;;;3.10;;
74042;SDS011;62384;53.600;10.040;2022-12-24T07:48:42;6.70;;;2.90;;
74042;SDS011;62384;53.600;10.040;2022-12-24T07:51:07;5.70;;;2.25;;
74042;SDS011;62384;53.600;10.040;2022-12-24T07:53:33;8.20;;;2.63;;
74042;SDS011;62384;53.600;10.040;2022-12-24T07:55:58;5.63;;;2.42;;
74042;SDS011;62384;53.600;10.040;2022-12-24T07:58:24;7.45;;;2.85;;
74042;SDS011;62384;53.600;10.040;2022-12-24T08:00:56;7.57;;;3.72;;
74042;SDS011;62384;53.600;10.040;2022-12-24T08:03:23;8.23;;;2.75;;
74042;SDS011;62384;53.600;10.040;2022-12-24T08:05:49;4.53;;;2.20;;
74042;SDS011;62384;53.600;10.040;2022-12-24T08:08:14;8.15;;;3.00;;
74042;SDS011;62384;53.600;10.040;2022-12-24T08:10:40;3.83;;;2.10;;
74042;SDS011;62384;53.600;10.040;2022-12-24T08:13:07;6.78;;;1.88;;
74042;SDS011;62384;53.600;10.040;2022-12-24T08:15:33;8.95;;;2.90;;
74042;SDS011;62384;53.600;10.040;2022-12-24T08:17:58;10.15;;;2.28;;
74042;SDS011;62384;53.600;10.040;2022-12-24T08:20:24;6.65;;;2.50;;
74042;SDS011;62384;53.600;10.040;2022-12-24T08:22:49;7.50;;;2.90;;
74042;SDS011;62384;53.600;10.040;2022-12-24T08:25:15;7.55;;;2.83;;
74042;SDS011;62384;53.600;10.040;2022-12-24T08:27:40;4.97;;;2.78;;
74042;SDS011;62384;53.600;10.040;2022-12-24T08:30:06;8.13;;;2.78;;
74042;SDS011;62384;53.600;10.040;2022-12-24T08:32:32;6.55;;;2.35;;
74042;SDS011;62384;53.600;10.040;2022-12-24T08:34:57;6.85;;;2.60;;
74042;SDS011;62384;53.600;10.040;2022-12-24T08:37:23;6.50;;;2.67;;
74042;SDS011;62384;53.600;10.040;2022-12-24T08:39:48;7.68;;;2.80;;
74042;SDS011;62384;53.600;10.040;2022-12-24T08:42:14;5.18;;;2.53;;
74042;SDS011;62384;53.600;10.040;2022-12-24T08:44:39;7.72;;;2.80;;
74042;SDS011;62384;53.600;10.040;2022-12-24T08:47:04;11.60;;;3.10;;
74042;SDS011;62384;53.600;10.040;2022-12-24T08:49:30;6.97;;;2.40;;
74042;SDS011;62384;53.600;10.040;2022-12-24T08:51:55;5.32;;;2.30;;
74042;SDS011;62384;53.600;10.040;2022-12-24T08:54:20;8.32;;;2.75;;
74042;SDS011;62384;53.600;10.040;2022-12-24T08:56:47;9.65;;;2.10;;
74042;SDS011;62384;53.600;10.040;2022-12-24T08:59:12;5.18;;;2.40;;
74042;SDS011;62384;53.600;10.040;2022-12-24T09:01:38;9.45;;;3.67;;
74042;SDS011;62384;53.600;10.040;2022-12-24T09:04:03;6.70;;;2.35;;
74042;SDS011;62384;53.600;10.040;2022-12-24T09:06:30;5.63;;;2.85;;
74042;SDS011;62384;53.600;10.040;2022-12-24T09:08:56;8.07;;;2.90;;
74042;SDS011;62384;53.600;10.040;2022-12-24T09:11:22;4.95;;;2.55;;
74042;SDS011;62384;53.600;10.040;2022-12-24T09:13:47;7.53;;;2.60;;
74042;SDS011;62384;53.600;10.040;2022-12-24T09:16:12;5.65;;;2.22;;
74042;SDS011;62384;53.600;10.040;2022-12-24T09:18:38;7.00;;;2.67;;
74042;SDS011;62384;53.600;10.040;2022-12-24T09:21:05;6.90;;;2.95;;
74042;SDS011;62384;53.600;10.040;2022-12-24T09:23:35;6.70;;;2.70;;
74042;SDS011;62384;53.600;10.040;2022-12-24T09:26:09;4.38;;;2.10;;
74042;SDS011;62384;53.600;10.040;2022-12-24T09:28:40;4.70;;;2.40;;
74042;SDS011;62384;53.600;10.040;2022-12-24T09:31:06;7.03;;;3.08;;
74042;SDS011;62384;53.600;10.040;2022-12-24T09:33:33;6.32;;;2.72;;
74042;SDS011;62384;53.600;10.040;2022-12-24T09:36:00;10.95;;;3.95;;
74042;SDS011;62384;53.600;10.040;2022-12-24T09:38:26;9.40;;;2.92;;
74042;SDS011;62384;53.600;10.040;2022-12-24T09:40:52;8.65;;;2.75;;
74042;SDS011;62384;53.600;10.040;2022-12-24T09:43:23;5.63;;;2.72;;
74042;SDS011;62384;53.600;10.040;2022-12-24T09:48:27;6.53;;;2.33;;
74042;SDS011;62384;53.600;10.040;2022-12-24T09:53:46;7.88;;;2.72;;
74042;SDS011;62384;53.600;10.040;2022-12-24T09:56:15;9.52;;;3.85;;
74042;SDS011;62384;53.600;10.040;2022-12-24T09:58:45;4.85;;;2.42;;
74042;SDS011;62384;53.600;10.040;2022-12-24T10:01:13;4.55;;;2.47;;
74042;SDS011;62384;53.600;10.040;2022-12-24T10:03:40;9.57;;;3.20;;
74042;SDS011;62384;53.600;10.040;2022-12-24T10:06:08;7.88;;;2.97;;
74042;SDS011;62384;53.600;10.040;2022-12-24T10:26:17;6.38;;;3.13;;
74042;SDS011;62384;53.600;10.040;2022-12-24T10:31:44;5.55;;;2.90;;
74042;SDS011;62384;53.600;10.040;2022-12-24T10:34:42;5.65;;;3.20;;
74042;SDS011;62384;53.600;10.040;2022-12-24T10:37:18;5.88;;;2.78;;
74042;SDS011;62384;53.600;10.040;2022-12-24T10:39:48;7.00;;;3.30;;
74042;SDS011;62384;53.600;10.040;2022-12-24T10:42:14;5.90;;;2.88;;
74042;SDS011;62384;53.600;10.040;2022-12-24T10:44:41;9.95;;;3.53;;
74042;SDS011;62384;53.600;10.040;2022-12-24T10:47:12;6.90;;;4.07;;
74042;SDS011;62384;53.600;10.040;2022-12-24T10:49:56;9.43;;;3.05;;
74042;SDS011;62384;53.600;10.040;2022-12-24T10:52:28;6.88;;;2.92;;
74042;SDS011;62384;53.600;10.040;2022-12-24T10:55:07;6.72;;;2.92;;
74042;SDS011;62384;53.600;10.040;2022-12-24T10:57:35;7.63;;;3.38;;
74042;SDS011;62384;53.600;10.040;2022-12-24T11:00:02;8.52;;;3.90;;
74042;SDS011;62384;53.600;10.040;2022-12-24T11:02:33;8.23;;;3.35;;
74042;SDS011;62384;53.600;10.040;2022-12-24T11:07:59;7.88;;;4.05;;
74042;SDS011;62384;53.600;10.040;2022-12-24T11:10:25;7.75;;;3.55;;
74042;SDS011;62384;53.600;10.040;2022-12-24T11:12:50;8.50;;;3.85;;
74042;SDS011;62384;53.600;10.040;2022-12-24T11:15:17;10.15;;;4.30;;
74042;SDS011;62384;53.600;10.040;2022-12-24T11:17:55;10.45;;;4.93;;
74042;SDS011;62384;53.600;10.040;2022-12-24T11:20:25;8.95;;;3.53;;
74042;SDS011;62384;53.600;10.040;2022-12-24T11:22:53;8.73;;;3.95;;
74042;SDS011;62384;53.600;10.040;2022-12-24T11:27:49;9.48;;;4.38;;
74042;SDS011;62384;53.600;10.040;2022-12-24T11:32:41;9.50;;;3.63;;
74042;SDS011;62384;53.600;10.040;2022-12-24T11:35:14;9.73;;;3.65;;
74042;SDS011;62384;53.600;10.040;2022-12-24T11:37:46;9.02;;;3.92;;
74042;SDS011;62384;53.600;10.040;2022-12-24T11:40:40;10.05;;;3.13;;
74042;SDS011;62384;53.600;10.040;2022-12-24T11:43:13;10.05;;;3.55;;
74042;SDS011;62384;53.600;10.040;2022-12-24T11:48:25;9.20;;;3.75;;
74042;SDS011;62384;53.600;10.040;2022-12-24T11:51:01;9.73;;;3.83;;
74042;SDS011;62384;53.600;10.040;2022-12-24T11:53:30;8.50;;;3.92;;
74042;SDS011;62384;53.600;10.040;2022-12-24T11:56:04;8.73;;;4.00;;
74042;SDS011;62384;53.600;10.040;2022-12-24T11:58:37;9.00;;;4.35;;
74042;SDS011;62384;53.600;10.040;2022-12-24T12:04:04;7.07;;;3.80;;
74042;SDS011;62384;53.600;10.040;2022-12-24T12:06:39;9.18;;;3.83;;
74042;SDS011;62384;53.600;10.040;2022-12-24T12:09:13;8.00;;;3.97;;
74042;SDS011;62384;53.600;10.040;2022-12-24T12:11:45;11.20;;;4.53;;
74042;SDS011;62384;53.600;10.040;2022-12-24T12:14:19;12.57;;;5.03;;
74042;SDS011;62384;53.600;10.040;2022-12-24T12:16:51;10.85;;;4.10;;
74042;SDS011;62384;53.600;10.040;2022-12-24T12:19:40;8.82;;;3.83;;
74042;SDS011;62384;53.600;10.040;2022-12-24T12:22:28;10.63;;;4.47;;
74042;SDS011;62384;53.600;10.040;2022-12-24T12:25:21;8.32;;;4.05;;
74042;SDS011;62384;53.600;10.040;2022-12-24T12:27:50;11.63;;;5.32;;
74042;SDS011;62384;53.600;10.040;2022-12-24T12:30:20;18.33;;;4.90;;
74042;SDS011;62384;53.600;10.040;2022-12-24T12:35:33;8.48;;;4.50;;
74042;SDS011;62384;53.600;10.040;2022-12-24T12:38:05;11.00;;;4.43;;
74042;SDS011;62384;53.600;10.040;2022-12-24T12:46:27;14.65;;;4.65;;
74042;SDS011;62384;53.600;10.040;2022-12-24T12:51:58;14.43;;;4.70;;
74042;SDS011;62384;53.600;10.040;2022-12-24T12:57:20;16.70;;;5.15;;
74042;SDS011;62384;53.600;10.040;2022-12-24T13:02:42;14.20;;;4.85;;
74042;SDS011;62384;53.600;10.040;2022-12-24T13:08:08;17.77;;;5.60;;
74042;SDS011;62384;53.600;10.040;2022-12-24T13:18:50;16.88;;;5.05;;
74042;SDS011;62384;53.600;10.040;2022-12-24T13:21:23;12.50;;;5.55;;
74042;SDS011;62384;53.600;10.040;2022-12-24T13:23:50;9.65;;;4.45;;
74042;SDS011;62384;53.600;10.040;2022-12-24T13:26:29;13.32;;;5.50;;
74042;SDS011;62384;53.600;10.040;2022-12-24T13:29:40;15.07;;;5.55;;
74042;SDS011;62384;53.600;10.040;2022-12-24T13:32:05;13.65;;;4.78;;
74042;SDS011;62384;53.600;10.040;2022-12-24T13:34:53;13.98;;;5.65;;
74042;SDS011;62384;53.600;10.040;2022-12-24T13:40:00;15.27;;;4.75;;
74042;SDS011;62384;53.600;10.040;2022-12-24T13:47:57;18.00;;;5.22;;
74042;SDS011;62384;53.600;10.040;2022-12-24T13:53:04;15.63;;;6.32;;
74042;SDS011;62384;53.600;10.040;2022-12-24T13:55:30;11.48;;;4.97;;
74042;SDS011;62384;53.600;10.040;2022-12-24T13:57:57;15.68;;;4.93;;
74042;SDS011;62384;53.600;10.040;2022-12-24T14:00:29;20.05;;;6.95;;
74042;SDS011;62384;53.600;10.040;2022-12-24T14:02:59;15.43;;;5.50;;
74042;SDS011;62384;53.600;10.040;2022-12-24T14:08:14;20.80;;;5.07;;
74042;SDS011;62384;53.600;10.040;2022-12-24T14:13:52;16.35;;;4.97;;
74042;SDS011;62384;53.600;10.040;2022-12-24T14:16:40;12.82;;;4.00;;
74042;SDS011;62384;53.600;10.040;2022-12-24T14:19:12;16.27;;;4.65;;
74042;SDS011;62384;53.600;10.040;2022-12-24T14:24:36;18.05;;;4.43;;
74042;SDS011;62384;53.600;10.040;2022-12-24T14:29:36;15.38;;;4.13;;
74042;SDS011;62384;53.600;10.040;2022-12-24T14:32:14;17.35;;;4.72;;
74042;SDS011;62384;53.600;10.040;2022-12-24T14:34:40;11.50;;;4.38;;
74042;SDS011;62384;53.600;10.040;2022-12-24T14:37:07;17.85;;;5.03;;
74042;SDS011;62384;53.600;10.040;2022-12-24T14:39:39;16.48;;;4.65;;
74042;SDS011;62384;53.600;10.040;2022-12-24T14:44:54;14.93;;;4.85;;
74042;SDS011;62384;53.600;10.040;2022-12-24T14:47:29;15.65;;;5.05;;
74042;SDS011;62384;53.600;10.040;2022-12-24T14:52:44;17.13;;;4.70;;
74042;SDS011;62384;53.600;10.040;2022-12-24T14:55:27;24.83;;;4.65;;
74042;SDS011;62384;53.600;10.040;2022-12-24T15:00:43;20.25;;;5.18;;
74042;SDS011;62384;53.600;10.040;2022-12-24T15:03:12;18.58;;;5.53;;
74042;SDS011;62384;53.600;10.040;2022-12-24T15:05:39;22.33;;;6.28;;
74042;SDS011;62384;53.600;10.040;2022-12-24T15:08:26;22.33;;;6.72;;
74042;SDS011;62384;53.600;10.040;2022-12-24T15:10:54;16.05;;;5.80;;
74042;SDS011;62384;53.600;10.040;2022-12-24T15:13:29;14.02;;;5.43;;
74042;SDS011;62384;53.600;10.040;2022-12-24T15:15:58;14.73;;;5.60;;
74042;SDS011;62384;53.600;10.040;2022-12-24T15:18:25;24.15;;;6.65;;
74042;SDS011;62384;53.600;10.040;2022-12-24T15:20:56;22.23;;;5.45;;
74042;SDS011;62384;53.600;10.040;2022-12-24T15:23:27;17.33;;;6.00;;
74042;SDS011;62384;53.600;10.040;2022-12-24T15:26:28;18.48;;;6.07;;
74042;SDS011;62384;53.600;10.040;2022-12-24T15:28:50;25.05;;;6.18;;
74042;SDS011;62384;53.600;10.040;2022-12-24T15:31:18;26.40;;;6.15;;
74042;SDS011;62384;53.600;10.040;2022-12-24T15:33:46;21.60;;;6.65;;
74042;SDS011;62384;53.600;10.040;2022-12-24T15:36:12;22.52;;;6.82;;
74042;SDS011;62384;53.600;10.040;2022-12-24T15:38:40;23.85;;;6.88;;
74042;SDS011;62384;53.600;10.040;2022-12-24T15:41:18;18.33;;;5.90;;
74042;SDS011;62384;53.600;10.040;2022-12-24T15:43:46;22.13;;;6.10;;
74042;SDS011;62384;53.600;10.040;2022-12-24T15:46:17;26.70;;;6.50;;
74042;SDS011;62384;53.600;10.040;2022-12-24T15:48:49;27.38;;;7.05;;
74042;SDS011;62384;53.600;10.040;2022-12-24T15:51:34;18.90;;;5.68;;
74042;SDS011;62384;53.600;10.040;2022-12-24T15:54:02;24.98;;;6.85;;
74042;SDS011;62384;53.600;10.040;2022-12-24T15:56:32;17.30;;;5.40;;
74042;SDS011;62384;53.600;10.040;2022-12-24T16:01:49;24.08;;;5.28;;
74042;SDS011;62384;53.600;10.040;2022-12-24T16:04:15;30.38;;;6.03;;
74042;SDS011;62384;53.600;10.040;2022-12-24T16:06:53;20.17;;;5.30;;
74042;SDS011;62384;53.600;10.040;2022-12-24T16:09:56;14.60;;;4.45;;
74042;SDS011;62384;53.600;10.040;2022-12-24T16:14:48;25.35;;;5.95;;
74042;SDS011;62384;53.600;10.040;2022-12-24T16:20:03;23.00;;;5.85;;
74042;SDS011;62384;53.600;10.040;2022-12-24T16:22:31;19.35;;;5.70;;
74042;SDS011;62384;53.600;10.040;2022-12-24T16:24:58;27.85;;;6.68;;
74042;SDS011;62384;53.600;10.040;2022-12-24T16:27:24;23.25;;;6.13;;
74042;SDS011;62384;53.600;10.040;2022-12-24T16:29:50;30.70;;;6.50;;
74042;SDS011;62384;53.600;10.040;2022-12-24T16:32:23;20.13;;;4.70;;
74042;SDS011;62384;53.600;10.040;2022-12-24T16:34:56;16.95;;;5.50;;
74042;SDS011;62384;53.600;10.040;2022-12-24T16:37:22;19.10;;;5.03;;
74042;SDS011;62384;53.600;10.040;2022-12-24T16:39:48;23.77;;;5.05;;
74042;SDS011;62384;53.600;10.040;2022-12-24T16:42:13;14.20;;;5.35;;
74042;SDS011;62384;53.600;10.040;2022-12-24T16:44:57;16.95;;;4.90;;
74042;SDS011;62384;53.600;10.040;2022-12-24T16:47:24;15.20;;;5.10;;
74042;SDS011;62384;53.600;10.040;2022-12-24T16:49:52;16.02;;;6.40;;